createdAt,value
2018-09-01T00:04:23.641Z,14.80
2018-09-01T00:09:27.110Z,14.60
2018-09-01T00:14:32.097Z,14.60
2018-09-01T00:19:35.825Z,14.50
2018-09-01T00:24:40.662Z,14.50
2018-09-01T00:29:44.735Z,14.40
2018-09-01T00:34:49.650Z,14.20
2018-09-01T00:39:54.461Z,14.30
2018-09-01T00:44:58.281Z,14.20
2018-09-01T00:50:01.793Z,13.90
2018-09-01T00:55:09.251Z,13.90
2018-09-01T01:00:30.622Z,13.90
2018-09-01T01:05:34.056Z,13.80
2018-09-01T01:10:37.424Z,13.70
2018-09-01T01:15:41.168Z,13.60
2018-09-01T01:20:44.579Z,13.60
2018-09-01T01:25:48.814Z,13.50
2018-09-01T01:36:02.350Z,13.40
2018-09-01T01:41:08.713Z,13.40
2018-09-01T01:46:12.097Z,13.20
2018-09-01T01:51:16.536Z,13.00
2018-09-01T01:56:20.289Z,12.90
2018-09-01T02:01:24.201Z,12.70
2018-09-01T02:06:28.925Z,12.80
2018-09-01T02:11:33.215Z,12.90
2018-09-01T02:16:36.601Z,12.90
2018-09-01T02:21:40.745Z,12.80
2018-09-01T02:26:44.110Z,12.70
2018-09-01T02:31:48.258Z,12.70
2018-09-01T02:36:52.818Z,12.50
2018-09-01T02:42:01.463Z,12.40
2018-09-01T02:47:05.969Z,12.20
2018-09-01T02:52:09.900Z,11.90
2018-09-01T02:57:13.987Z,12.00
2018-09-01T03:02:22.933Z,12.00
2018-09-01T03:07:27.059Z,11.90
2018-09-01T03:12:31.309Z,12.00
2018-09-01T03:17:34.996Z,12.10
2018-09-01T03:22:39.036Z,12.10
2018-09-01T03:27:42.835Z,12.10
2018-09-01T03:32:46.697Z,12.10
2018-09-01T03:37:50.671Z,12.00
2018-09-01T03:42:54.502Z,12.10
2018-09-01T03:47:58.395Z,12.10
2018-09-01T03:53:02.453Z,12.10
2018-09-01T03:58:06.210Z,12.10
2018-09-01T04:03:09.625Z,11.90
2018-09-01T04:08:13.002Z,11.80
2018-09-01T04:13:16.339Z,11.80
2018-09-01T04:18:19.669Z,11.90
2018-09-01T04:23:23.051Z,11.80
2018-09-01T04:28:26.468Z,11.70
2018-09-01T04:33:31.226Z,11.70
2018-09-01T04:38:34.620Z,11.70
2018-09-01T04:43:38.988Z,11.60
2018-09-01T04:48:42.420Z,11.50
2018-09-01T04:53:46.601Z,11.50
2018-09-01T04:58:49.968Z,11.50
2018-09-01T05:03:54.189Z,11.50
2018-09-01T05:08:58.447Z,11.50
2018-09-01T05:14:01.764Z,11.50
2018-09-01T05:19:05.227Z,11.40
2018-09-01T05:24:08.979Z,11.30
2018-09-01T05:29:12.415Z,11.40
2018-09-01T05:34:15.919Z,11.40
2018-09-01T05:39:19.343Z,11.50
2018-09-01T05:44:22.779Z,11.50
2018-09-01T05:49:26.320Z,11.60
2018-09-01T05:54:29.845Z,11.70
2018-09-01T05:59:33.584Z,11.80
2018-09-01T06:04:36.993Z,11.90
2018-09-01T06:09:40.402Z,12.00
2018-09-01T06:14:43.741Z,12.20
2018-09-01T06:19:47.124Z,12.30
2018-09-01T06:24:50.544Z,12.40
2018-09-01T06:29:54.481Z,12.60
2018-09-01T06:41:09.031Z,13.20
2018-09-01T06:46:12.362Z,13.30
2018-09-01T06:51:15.933Z,13.70
2018-09-01T06:56:19.958Z,14.10
2018-09-01T07:01:23.317Z,14.30
2018-09-01T07:06:26.762Z,14.60
2018-09-01T07:11:36.066Z,14.90
2018-09-01T07:16:50.986Z,15.30
2018-09-01T07:21:54.536Z,15.60
2018-09-01T07:26:58.648Z,15.90
2018-09-01T07:32:13.104Z,16.10
2018-09-01T07:37:22.354Z,16.30
2018-09-01T07:42:27.826Z,16.80
2018-09-01T07:47:43.033Z,16.90
2018-09-01T07:52:48.375Z,17.30
2018-09-01T07:57:56.661Z,17.40
2018-09-01T08:03:00.359Z,17.50
2018-09-01T08:08:12.480Z,18.00
2018-09-01T08:13:20.674Z,18.30
2018-09-01T08:18:24.191Z,18.70
2018-09-01T08:23:30.593Z,19.00
2018-09-01T08:28:34.819Z,19.50
2018-09-01T08:33:38.270Z,19.80
2018-09-01T08:38:41.728Z,20.00
2018-09-01T08:43:45.135Z,20.20
2018-09-01T08:48:48.536Z,20.30
2018-09-01T08:53:51.948Z,20.40
2018-09-01T08:58:55.456Z,20.90
2018-09-01T09:03:58.853Z,21.30
2018-09-01T09:09:02.300Z,21.50
2018-09-01T09:14:05.729Z,21.70
2018-09-01T09:19:11.340Z,22.00
2018-09-01T09:24:14.654Z,22.40
2018-09-01T09:29:18.023Z,22.20
2018-09-01T09:34:21.807Z,22.20
2018-09-01T09:39:25.216Z,22.40
2018-09-01T09:44:28.568Z,22.80
2018-09-01T09:49:31.924Z,23.20
2018-09-01T09:54:35.235Z,23.40
2018-09-01T09:59:38.658Z,23.30
2018-09-01T10:04:42.008Z,23.10
2018-09-01T10:09:45.374Z,23.70
2018-09-01T10:14:48.728Z,24.10
2018-09-01T10:19:52.272Z,24.60
2018-09-01T10:24:55.660Z,25.10
2018-09-01T10:30:05.878Z,25.70
2018-09-01T10:35:09.851Z,26.50
2018-09-01T10:40:13.407Z,26.20
2018-09-01T10:45:16.768Z,25.00
2018-09-01T10:50:20.080Z,24.20
2018-09-01T10:55:29.549Z,23.80
2018-09-01T11:00:34.067Z,25.00
2018-09-01T11:05:37.463Z,25.90
2018-09-01T11:10:41.712Z,25.70
2018-09-01T11:15:45.061Z,26.40
2018-09-01T11:20:48.598Z,25.20
2018-09-01T11:25:52.062Z,24.60
2018-09-01T11:30:57.293Z,24.90
2018-09-01T11:36:04.211Z,24.10
2018-09-01T11:41:08.298Z,24.30
2018-09-01T11:46:11.976Z,25.20
2018-09-01T11:51:15.402Z,24.70
2018-09-01T11:56:18.807Z,24.10
2018-09-01T12:01:22.260Z,24.20
2018-09-01T12:06:25.698Z,24.70
2018-09-01T12:11:29.003Z,26.00
2018-09-01T12:16:33.368Z,26.40
2018-09-01T12:21:36.741Z,26.50
2018-09-01T12:26:40.872Z,26.70
2018-09-01T12:31:44.233Z,27.30
2018-09-01T12:36:48.025Z,27.30
2018-09-01T13:00:39.593Z,27.30
2018-09-01T13:05:57.689Z,28.00
2018-09-01T13:11:01.196Z,28.40
2018-09-01T13:16:18.158Z,28.70
2018-09-01T13:26:59.105Z,27.60
2018-09-01T13:32:16.548Z,27.40
2018-09-01T13:37:29.528Z,26.90
2018-09-01T13:42:45.846Z,26.60
2018-09-01T13:48:05.964Z,26.20
2018-09-01T13:53:15.410Z,26.60
2018-09-01T13:58:37.685Z,27.00
2018-09-01T14:03:51.705Z,27.50
2018-09-01T14:08:57.414Z,27.50
2018-09-01T14:14:02.180Z,26.90
2018-09-01T14:19:18.257Z,26.80
2018-09-01T14:24:29.130Z,27.00
2018-09-01T14:34:59.738Z,26.70
2018-09-01T14:40:30.634Z,27.00
2018-09-01T14:45:38.068Z,26.50
2018-09-01T14:50:47.671Z,26.60
2018-09-01T14:58:10.516Z,26.50
2018-09-01T15:03:15.760Z,26.40
2018-09-01T15:08:31.728Z,26.20
2018-09-01T15:13:44.863Z,25.80
2018-09-01T15:18:48.230Z,26.30
2018-09-01T15:24:04.896Z,26.60
2018-09-01T15:39:47.739Z,26.00
2018-09-01T16:01:48.433Z,25.70
2018-09-01T16:06:51.728Z,25.90
2018-09-01T16:12:07.680Z,26.10
2018-09-01T16:17:21.234Z,26.20
2018-09-01T16:22:26.527Z,25.90
2018-09-01T16:27:37.511Z,25.70
2018-09-01T16:32:51.721Z,25.70
2018-09-01T16:37:56.576Z,26.10
2018-09-01T16:43:08.219Z,26.00
2018-09-01T16:48:16.013Z,25.90
2018-09-01T16:53:20.451Z,25.20
2018-09-01T16:58:26.838Z,24.80
2018-09-01T17:03:30.243Z,24.30
2018-09-01T17:08:35.156Z,23.90
2018-09-01T17:13:41.420Z,23.60
2018-09-01T17:18:47.658Z,23.50
2018-09-01T17:23:58.340Z,23.40
2018-09-01T17:29:02.075Z,23.20
2018-09-01T17:34:15.546Z,22.90
2018-09-01T17:39:24.269Z,22.70
2018-09-01T17:44:31.289Z,22.40
2018-09-01T17:49:38.717Z,22.30
2018-09-01T17:54:44.788Z,22.20
2018-09-01T17:59:48.266Z,22.00
2018-09-01T18:04:56.194Z,21.70
2018-09-01T18:10:02.969Z,21.50
2018-09-01T18:15:06.714Z,21.30
2018-09-01T18:20:10.074Z,21.10
2018-09-01T18:25:24.114Z,20.80
2018-09-01T18:30:27.671Z,20.70
2018-09-01T18:35:41.036Z,20.60
2018-09-01T18:40:44.849Z,20.50
2018-09-01T18:45:52.110Z,20.40
2018-09-01T18:50:55.539Z,20.30
2018-09-01T18:55:58.872Z,20.00
2018-09-01T19:01:02.277Z,19.90
2018-09-01T19:06:10.830Z,19.70
2018-09-01T19:11:15.780Z,19.60
2018-09-01T19:16:20.888Z,19.30
2018-09-01T19:21:24.455Z,19.20
2018-09-01T19:26:28.268Z,19.10
2018-09-01T19:31:34.094Z,19.00
2018-09-01T19:36:38.645Z,18.90
2018-09-01T19:41:43.539Z,18.80
2018-09-01T19:46:46.826Z,18.70
2018-09-01T19:51:50.834Z,18.50
2018-09-01T19:56:55.305Z,18.40
2018-09-01T20:01:58.584Z,18.30
2018-09-01T20:07:05.549Z,18.10
2018-09-01T20:12:11.083Z,17.90
2018-09-01T20:17:14.548Z,17.90
2018-09-01T20:22:17.861Z,17.80
2018-09-01T20:27:21.193Z,17.90
2018-09-01T20:32:24.908Z,17.70
2018-09-01T20:37:28.880Z,17.60
2018-09-01T20:42:32.393Z,17.60
2018-09-01T20:47:36.196Z,17.50
2018-09-01T20:52:40.012Z,17.40
2018-09-01T20:57:43.825Z,17.10
2018-09-01T21:02:48.632Z,16.90
2018-09-01T21:07:52.713Z,16.90
2018-09-01T21:12:56.453Z,16.70
2018-09-01T21:18:03.809Z,16.60
2018-09-01T21:23:07.618Z,16.60
2018-09-01T21:28:11.635Z,16.50
2018-09-01T21:33:21.621Z,16.30
2018-09-01T21:38:30.752Z,16.20
2018-09-01T21:43:34.463Z,16.00
2018-09-01T21:48:37.778Z,15.80
2018-09-01T21:53:41.208Z,15.70
2018-09-01T21:58:44.476Z,15.70
2018-09-01T22:03:48.686Z,15.60
2018-09-01T22:08:52.020Z,15.40
2018-09-01T22:13:55.449Z,15.40
2018-09-01T22:18:58.850Z,15.30
2018-09-01T22:24:02.204Z,15.10
2018-09-01T22:29:05.527Z,15.10
2018-09-01T22:34:08.887Z,15.10
2018-09-01T22:39:12.290Z,15.10
2018-09-01T22:44:25.462Z,15.00
2018-09-01T22:49:29.560Z,14.90
2018-09-01T22:54:32.941Z,14.90
2018-09-01T22:59:40.880Z,14.80
2018-09-01T23:05:02.021Z,14.80
2018-09-01T23:10:07.884Z,14.80
2018-09-01T23:15:14.058Z,14.60
2018-09-01T23:20:17.412Z,14.40
2018-09-01T23:25:21.504Z,14.40
2018-09-01T23:30:25.977Z,14.40
2018-09-01T23:35:29.856Z,14.40
2018-09-01T23:40:33.463Z,14.30
2018-09-01T23:45:38.104Z,14.10
2018-09-01T23:50:41.402Z,14.00
2018-09-01T23:55:48.521Z,13.80
